Last 30 Days

Squaw-Belmont 8000'

Daily Data | America/Los_Angeles
as of 8/12/20 2:00 PM PDT
Date Daily Max Temp (°F) Max Temp Time Daily Min Temp (°F) Min Temp Time Daily Rain (In) Seasonal Rainfall (In) Wind Spd (mph) Daily Max Wind (mph) Max Wind Time Max Wind Dir (°) Max RH (%) Min RH (%) Wet Bulb (°F) WetB Hrs <28F (hrs) Bat Volt Min Day (V)
8/11/20 70.5 1246 55.3 2216 0.00 97.60 7.0 20.5 1211 W | 262 54 25 48.4 0.0 13.0
8/10/20 80.3 1351 48.8 1608 0.39 97.60 4.5 27.1 1728 N | 9 84 19 49.7 0.0 13.0
8/9/20 81.2 1355 58.6 0619 0.00 97.20 4.7 17.8 1805 WNW | 300 71 15 52.3 0.0 13.0
8/8/20 75.1 1412 54.6 0534 0.00 97.20 4.4 17.8 1538 WNW | 303 72 18 51.8 0.0 13.0
8/7/20 73.4 1526 49.7 0556 0.00 97.20 4.1 17.2 1618 SW | 232 71 29 48.4 0.0 13.0
8/6/20 67.7 1428 46.7 0608 0.00 97.20 5.3 20.2 1605 WSW | 248 71 19 43.7 0.0 13.1
8/5/20 68.3 1416 50.3 2359 0.00 97.20 7.8 22.3 1005 SW | 215 64 27 44.8 0.0 13.0
8/4/20 74.2 1354 54.4 0128 0.00 97.20 5.9 17.4 2255 SSW | 211 54 21 46.8 0.0 13.0
8/3/20 74.4 1440 49.9 0516 0.00 97.20 4.8 18.0 1453 SSW | 206 47 10 - 0.0 13.0
8/2/20 74.1 1331 55.2 2356 0.00 97.20 8.3 21.9 1746 WSW | 245 36 6 43.6 0.0 13.0
8/1/20 76.0 1345 55.4 0552 0.00 97.20 6.6 21.8 0129 SW | 223 38 7 44.8 0.0 13.0
7/31/20 74.8 1426 57.7 2337 0.00 97.20 9.3 21.4 0152 SW | 227 35 6 45.3 0.0 13.0
7/30/20 74.1 1345 56.3 2118 0.00 97.20 8.5 21.4 1831 WSW | 240 50 16 48.4 0.0 13.0
7/29/20 73.8 1149 56.3 0004 0.00 97.20 8.3 18.5 1445 WSW | 245 46 11 47.0 0.0 13.0
7/28/20 75.0 1215 50.9 0331 0.00 97.20 4.2 20.3 1417 WSW | 240 71 24 49.8 0.0 12.4
7/27/20 72.7 1138 54.0 2359 0.00 97.20 4.0 22.8 1502 NNW | 331 65 26 49.4 0.0 13.0
7/26/20 76.2 1315 54.8 0555 0.00 97.20 4.6 25.8 1605 WSW | 248 55 18 48.7 0.0 13.0
7/25/20 73.0 1149 51.9 0555 0.00 97.20 3.9 19.9 1548 W | 277 61 33 49.2 0.0 13.0
7/24/20 71.5 1317 50.2 0549 0.00 97.20 4.5 20.0 1812 WSW | 240 69 28 48.9 0.0 13.0
7/23/20 69.5 1424 50.0 0447 0.00 97.20 4.9 17.7 1501 SSW | 192 71 37 49.0 0.0 13.0
7/22/20 69.4 1402 52.6 2349 0.00 97.20 5.3 20.8 1512 SW | 221 69 44 50.5 0.0 13.0
7/21/20 79.6 1322 58.4 0541 0.00 97.20 3.3 16.9 1436 SW | 215 58 20 51.5 0.0 13.0
7/20/20 79.3 1305 58.2 0547 0.00 97.20 4.2 25.9 1814 NNW | 343 52 19 50.7 0.0 13.0
7/19/20 78.2 1326 57.0 0541 0.00 97.20 4.3 21.6 1709 WSW | 247 54 22 51.0 0.0 13.0
7/18/20 76.2 1311 54.1 0524 0.00 97.20 4.5 20.9 1745 WSW | 258 52 24 50.5 0.0 13.0
7/17/20 77.5 1301 54.8 0528 0.00 97.20 7.1 19.0 1546 SW | 235 62 18 51.0 0.0 13.0
7/16/20 78.4 1350 57.3 0553 0.00 97.20 4.0 17.6 1551 NW | 309 68 18 52.0 0.0 13.0
7/15/20 76.4 1622 56.7 0404 0.00 97.20 4.1 14.9 1317 SSE | 163 67 20 51.9 0.0 13.0
7/14/20 73.0 1404 54.3 0535 0.00 97.20 5.9 21.0 0019 S | 169 61 28 50.1 0.0 13.0
7/13/20 72.2 1210 57.2 0458 0.00 97.20 10.2 30.9 1611 SW | 231 51 21 47.1 0.0 13.0
Max 81.2 - 58.6 - 0.39 - 10.2 30.9 - - 84 44 52.3 0.0 13.1
Avg - - - - - - 5.6 - - - - - 48.8 - -
Min 67.7 - 46.7 - 0.00 - 3.3 14.9 - - 35 6 43.6 0.0 12.4